FWCL

Chileka International Airport

Blantyre, Malawi
METAR FWCL 191200Z 36007KT 9999 FEW025CB BKN030 29/21 Q1013 NOSIG
Observed Flight Rules
Dec-19 @ 12:00 UTC (33 minutes ago) Marginal Visual Flight Rules
Wind Visibility Clouds
360° at 7 knots 10,000+ meters
  • Few at 2,500' AGL
  • Broken at 3,000' AGL
Temperatures Readings
Current 29°C / 84°F
Dewpoint 21°C / 70°F
Humidity 62%
Altimeter 29.91" Hg
Pressure 1013 hPa
Elevation 767
METAR FWCL 191200Z 36007KT 9999 FEW025CB BKN030 29/21 Q1013 NOSIG
Observed Flight Rules
Dec-19 @ 12:00 UTC
(33 minutes ago)
MVFR
Wind Visibility
360° at 7 knots 10,000+ meters
Clouds
  • Few at 2,500' AGL
  • Broken at 3,000' AGL
Temperature Dewpoint
29°C / 84°F 21°C / 70°F
Humidity Altimeter Pressure
62% 29.91" Hg 1013 hPa